Time;durP1;ratioP1;P1;durP2;ratioP2;P2;SDS_P1;SDS_P2;PMS_P1;PMS_P2;Temp;Humidity;BMP_temperature;BMP_pressure;BME280_temperature;BME280_humidity;BME280_pressure;Samples;Min_cycle;Max_cycle;Signal;HPM_P1;HPM_P2
2021/05/17 00:02:02;;;;;;;2.27;1.77;;;;;;;;;;5020811;28;20188;-83
2021/05/17 00:04:37;;;;;;;1.80;1.63;;;;;;;;;;4978545;28;20258;-82
2021/05/17 00:07:09;;;;;;;1.90;1.70;;;;;;;;;;4978156;28;20570;-83
2021/05/17 00:09:35;;;;;;;1.63;1.53;;;;;;;;;;4976257;28;20190;-83
2021/05/17 00:12:01;;;;;;;2.00;1.80;;;;;;;;;;4991841;28;20230;-83
2021/05/17 00:14:29;;;;;;;2.23;1.80;;;;;;;;;;4971724;28;20228;-83
2021/05/17 00:16:55;;;;;;;2.60;2.00;;;;;;;;;;4970745;28;20215;-83
2021/05/17 00:19:21;;;;;;;2.07;1.90;;;;;;;;;;4983228;28;20314;-83
2021/05/17 00:21:48;;;;;;;1.87;1.70;;;;;;;;;;4972449;28;20211;-83
2021/05/17 00:24:15;;;;;;;1.87;1.77;;;;;;;;;;4965606;28;20189;-83
2021/05/17 00:26:41;;;;;;;3.67;2.23;;;;;;;;;;4965589;28;20262;-83
2021/05/17 00:29:09;;;;;;;1.93;1.60;;;;;;;;;;4971699;28;20191;-83
2021/05/17 00:31:35;;;;;;;2.47;1.87;;;;;;;;;;4966526;28;20216;-83
2021/05/17 00:34:01;;;;;;;2.70;2.13;;;;;;;;;;5005500;28;20311;-82
2021/05/17 00:36:28;;;;;;;2.13;1.50;;;;;;;;;;5008807;28;20277;-83
2021/05/17 00:38:54;;;;;;;2.47;1.80;;;;;;;;;;5002438;28;20190;-83
2021/05/17 00:41:20;;;;;;;2.83;1.80;;;;;;;;;;4963708;28;20184;-83
2021/05/17 00:43:47;;;;;;;1.63;1.53;;;;;;;;;;5017630;28;20196;-83
2021/05/17 00:46:13;;;;;;;2.27;1.83;;;;;;;;;;4971192;28;20207;-83
2021/05/17 00:48:39;;;;;;;2.40;2.20;;;;;;;;;;4970351;28;20310;-83
2021/05/17 00:51:06;;;;;;;1.90;1.57;;;;;;;;;;4964784;28;20203;-83
2021/05/17 00:53:33;;;;;;;1.63;1.53;;;;;;;;;;4973650;28;20187;-83
2021/05/17 00:55:59;;;;;;;2.63;2.00;;;;;;;;;;4979957;28;20241;-83
2021/05/17 00:58:26;;;;;;;2.43;2.00;;;;;;;;;;5008709;28;20283;-83
2021/05/17 01:00:52;;;;;;;2.40;1.93;;;;;;;;;;4996992;28;20655;-83
2021/05/17 01:03:19;;;;;;;2.27;1.53;;;;;;;;;;4977949;28;20845;-83
2021/05/17 01:05:45;;;;;;;2.00;1.80;;;;;;;;;;4974460;28;20183;-83
2021/05/17 01:08:19;;;;;;;2.23;1.80;;;;;;;;;;4976942;28;20707;-83
2021/05/17 01:10:46;;;;;;;2.23;1.40;;;;;;;;;;4971260;28;20604;-82
2021/05/17 01:13:13;;;;;;;1.77;1.63;;;;;;;;;;4965622;28;20208;-83
2021/05/17 01:15:39;;;;;;;2.33;1.83;;;;;;;;;;4971241;28;20241;-82
2021/05/17 01:18:05;;;;;;;2.33;2.13;;;;;;;;;;4977078;28;20243;-83
2021/05/17 01:20:33;;;;;;;2.70;1.90;;;;;;;;;;4996229;28;20199;-83
2021/05/17 01:25:46;;;;;;;3.70;1.77;;;;;;;;;;4964880;28;20231;-83
2021/05/17 01:28:19;;;;;;;1.70;1.60;;;;;;;;;;5017359;28;20700;-83
2021/05/17 01:30:46;;;;;;;2.73;1.60;;;;;;;;;;4969958;28;20199;-83
2021/05/17 01:33:13;;;;;;;2.63;2.20;;;;;;;;;;5000300;28;20202;-83
2021/05/17 01:35:41;;;;;;;2.07;1.70;;;;;;;;;;4976959;28;20184;-83
2021/05/17 01:38:07;;;;;;;1.40;1.30;;;;;;;;;;4972729;28;20216;-84
2021/05/17 01:40:35;;;;;;;1.90;1.30;;;;;;;;;;4972765;28;20184;-83
2021/05/17 01:43:03;;;;;;;1.67;1.20;;;;;;;;;;4967576;28;20195;-83
2021/05/17 01:45:30;;;;;;;1.63;1.53;;;;;;;;;;4977469;28;20612;-83
2021/05/17 01:47:57;;;;;;;1.93;1.33;;;;;;;;;;4985848;28;20630;-84
2021/05/17 01:50:24;;;;;;;1.67;1.43;;;;;;;;;;4973485;28;20188;-84
2021/05/17 01:52:50;;;;;;;2.80;1.60;;;;;;;;;;4971811;28;20195;-83
2021/05/17 01:55:17;;;;;;;1.67;1.30;;;;;;;;;;4982250;28;20199;-83
2021/05/17 01:57:43;;;;;;;1.60;1.30;;;;;;;;;;4971918;28;20286;-84
2021/05/17 02:00:10;;;;;;;2.10;1.43;;;;;;;;;;4982309;28;20187;-85
2021/05/17 02:02:37;;;;;;;1.67;1.40;;;;;;;;;;4974294;28;20176;-84
2021/05/17 02:05:04;;;;;;;1.50;1.23;;;;;;;;;;4965617;28;20267;-84
2021/05/17 02:07:30;;;;;;;1.80;1.50;;;;;;;;;;4977051;28;20495;-84
2021/05/17 02:09:58;;;;;;;1.67;1.50;;;;;;;;;;4973380;28;20183;-84
2021/05/17 02:12:24;;;;;;;2.67;1.50;;;;;;;;;;4987580;28;20180;-83
2021/05/17 02:14:52;;;;;;;2.13;1.40;;;;;;;;;;4968812;28;20705;-84
2021/05/17 02:17:18;;;;;;;2.03;1.60;;;;;;;;;;4978910;28;20208;-84
2021/05/17 02:19:45;;;;;;;2.97;1.40;;;;;;;;;;4969698;28;20279;-84
2021/05/17 02:22:12;;;;;;;1.90;1.30;;;;;;;;;;4977096;28;20270;-84
2021/05/17 02:24:38;;;;;;;2.10;1.43;;;;;;;;;;4970392;28;20237;-84
2021/05/17 02:27:08;;;;;;;1.47;1.33;;;;;;;;;;4984067;28;20198;-84
2021/05/17 02:29:35;;;;;;;1.60;1.50;;;;;;;;;;4977959;28;20647;-84
2021/05/17 02:32:01;;;;;;;2.40;1.33;;;;;;;;;;5023493;28;20172;-84
2021/05/17 02:34:28;;;;;;;2.57;1.97;;;;;;;;;;4974787;28;20218;-84
2021/05/17 02:36:54;;;;;;;2.30;1.53;;;;;;;;;;5001258;28;20398;-83
2021/05/17 02:39:20;;;;;;;1.70;1.60;;;;;;;;;;4984954;28;20679;-84
2021/05/17 02:41:46;;;;;;;1.33;1.23;;;;;;;;;;4970018;28;20208;-83
2021/05/17 02:44:13;;;;;;;1.77;1.60;;;;;;;;;;4963653;28;20210;-84
2021/05/17 02:46:39;;;;;;;2.50;1.63;;;;;;;;;;4968762;28;20216;-83
2021/05/17 02:49:05;;;;;;;1.90;1.30;;;;;;;;;;4979750;28;20184;-83
2021/05/17 02:51:32;;;;;;;2.60;1.53;;;;;;;;;;4975695;28;20256;-83
2021/05/17 02:54:17;;;;;;;3.20;1.43;;;;;;;;;;4978863;28;20215;-83
2021/05/17 02:57:02;;;;;;;1.40;1.30;;;;;;;;;;4998509;28;20200;-83
2021/05/17 02:59:37;;;;;;;1.57;1.47;;;;;;;;;;4984671;28;20218;-83
2021/05/17 03:02:07;;;;;;;1.83;1.70;;;;;;;;;;4979784;28;20630;-83
2021/05/17 03:04:36;;;;;;;2.80;1.47;;;;;;;;;;4967125;28;20182;-83
2021/05/17 03:07:07;;;;;;;1.40;1.23;;;;;;;;;;4973657;28;20199;-83
2021/05/17 03:09:34;;;;;;;1.37;1.27;;;;;;;;;;4963266;28;20245;-83
2021/05/17 03:12:00;;;;;;;2.30;2.10;;;;;;;;;;4987980;28;20218;-83
2021/05/17 03:14:28;;;;;;;3.23;1.60;;;;;;;;;;4991194;28;20667;-83
2021/05/17 03:16:57;;;;;;;1.30;1.20;;;;;;;;;;4985490;28;20212;-83
2021/05/17 03:19:23;;;;;;;2.00;1.30;;;;;;;;;;4971513;28;20180;-83
2021/05/17 03:21:52;;;;;;;2.10;1.57;;;;;;;;;;4966411;28;20176;-83
2021/05/17 03:24:19;;;;;;;1.43;1.30;;;;;;;;;;4969741;28;20184;-83
2021/05/17 03:26:45;;;;;;;2.40;1.40;;;;;;;;;;4977588;28;20188;-83
2021/05/17 03:29:12;;;;;;;1.60;1.50;;;;;;;;;;5003116;28;20176;-83
2021/05/17 03:31:38;;;;;;;1.33;1.23;;;;;;;;;;5010988;28;20179;-83
2021/05/17 03:34:04;;;;;;;2.23;1.17;;;;;;;;;;4973981;28;20615;-83
2021/05/17 03:36:30;;;;;;;2.00;1.17;;;;;;;;;;4970957;28;20301;-83
2021/05/17 03:38:56;;;;;;;2.50;1.10;;;;;;;;;;5004105;28;20176;-83
2021/05/17 03:41:23;;;;;;;1.00;1.00;;;;;;;;;;4995721;28;20184;-83
2021/05/17 03:43:49;;;;;;;1.47;1.03;;;;;;;;;;4981799;28;20685;-82
2021/05/17 03:46:15;;;;;;;2.70;1.20;;;;;;;;;;5002204;28;20211;-83
2021/05/17 03:48:41;;;;;;;1.10;1.10;;;;;;;;;;5045421;28;20176;-83
2021/05/17 03:51:11;;;;;;;1.30;1.20;;;;;;;;;;4991900;28;20409;-83
2021/05/17 03:53:37;;;;;;;1.97;1.13;;;;;;;;;;4971124;28;20658;-83
2021/05/17 03:56:03;;;;;;;1.57;1.20;;;;;;;;;;4974343;28;20176;-83
2021/05/17 03:58:29;;;;;;;3.00;1.23;;;;;;;;;;4970621;28;20533;-82
2021/05/17 04:00:57;;;;;;;1.47;1.17;;;;;;;;;;4987470;28;20655;-82
2021/05/17 04:03:24;;;;;;;1.47;1.17;;;;;;;;;;4978124;28;20241;-82
2021/05/17 04:12:33;;;;;;;2.17;1.33;;;;;;;;;;4972295;28;20785;-83
2021/05/17 04:13:54;;;;;;;1.10;1.00;;;;;;;;;;4995480;28;20227;-83
2021/05/17 04:16:20;;;;;;;1.20;1.03;;;;;;;;;;4974676;28;20219;-83
2021/05/17 04:18:46;;;;;;;1.23;1.00;;;;;;;;;;4971628;28;20261;-83
2021/05/17 04:21:13;;;;;;;1.70;1.33;;;;;;;;;;4968933;28;20273;-83
2021/05/17 04:23:39;;;;;;;2.90;1.17;;;;;;;;;;4983441;28;20210;-83
2021/05/17 04:26:05;;;;;;;4.50;1.47;;;;;;;;;;4992509;28;20180;-83
2021/05/17 04:28:31;;;;;;;1.13;1.03;;;;;;;;;;5002118;28;20196;-83
2021/05/17 04:30:57;;;;;;;2.10;1.40;;;;;;;;;;4978015;28;20192;-83
2021/05/17 04:33:23;;;;;;;1.23;1.13;;;;;;;;;;4963221;28;20596;-83
2021/05/17 04:35:49;;;;;;;1.10;0.90;;;;;;;;;;4970881;28;20212;-82
2021/05/17 04:38:16;;;;;;;1.80;1.10;;;;;;;;;;4983247;28;20200;-83
2021/05/17 04:40:44;;;;;;;1.23;0.97;;;;;;;;;;4980698;28;20500;-83
2021/05/17 04:43:10;;;;;;;1.27;1.03;;;;;;;;;;5011214;28;20589;-83
2021/05/17 04:45:36;;;;;;;1.00;0.90;;;;;;;;;;4991588;28;20610;-83
2021/05/17 04:48:03;;;;;;;2.03;1.10;;;;;;;;;;4970512;28;20222;-83
2021/05/17 04:50:29;;;;;;;2.43;1.57;;;;;;;;;;4969706;28;20658;-83
2021/05/17 04:52:55;;;;;;;1.27;1.17;;;;;;;;;;4984260;28;20181;-83
2021/05/17 04:55:21;;;;;;;1.50;1.30;;;;;;;;;;5023266;28;20184;-83
2021/05/17 04:57:48;;;;;;;1.10;1.00;;;;;;;;;;5004311;28;20714;-83
2021/05/17 05:00:14;;;;;;;1.50;1.40;;;;;;;;;;4975814;28;20180;-83
2021/05/17 05:02:40;;;;;;;1.70;1.03;;;;;;;;;;4967602;28;20241;-83
2021/05/17 05:05:07;;;;;;;1.10;1.00;;;;;;;;;;4967929;28;20169;-83
2021/05/17 05:07:33;;;;;;;1.30;1.20;;;;;;;;;;4981795;28;20181;-83
2021/05/17 05:09:59;;;;;;;1.73;1.10;;;;;;;;;;4971717;28;20396;-83
2021/05/17 05:12:25;;;;;;;2.03;1.40;;;;;;;;;;4970878;28;20188;-83
2021/05/17 05:14:51;;;;;;;1.83;1.23;;;;;;;;;;4971558;28;20582;-83
2021/05/17 05:17:17;;;;;;;2.10;1.23;;;;;;;;;;5026521;28;20215;-83
2021/05/17 05:19:43;;;;;;;2.10;1.20;;;;;;;;;;4967458;28;20180;-83
2021/05/17 05:22:09;;;;;;;1.20;1.10;;;;;;;;;;4971699;28;20172;-83
2021/05/17 05:24:35;;;;;;;1.93;1.47;;;;;;;;;;4966856;28;20183;-83
2021/05/17 05:27:14;;;;;;;1.30;1.13;;;;;;;;;;4963034;28;20278;-84
2021/05/17 05:29:55;;;;;;;0.87;0.87;;;;;;;;;;4970498;28;20875;-83
2021/05/17 05:32:31;;;;;;;1.57;1.10;;;;;;;;;;4970123;28;20176;-83
2021/05/17 05:34:57;;;;;;;0.93;0.93;;;;;;;;;;4986136;28;20190;-83
2021/05/17 05:37:23;;;;;;;1.10;1.00;;;;;;;;;;4971418;28;20657;-83
2021/05/17 05:39:49;;;;;;;3.50;1.00;;;;;;;;;;4971970;28;20192;-83
2021/05/17 05:42:16;;;;;;;1.97;1.20;;;;;;;;;;4972264;28;20191;-83
2021/05/17 05:44:46;;;;;;;1.30;1.20;;;;;;;;;;4970862;28;20203;-83
2021/05/17 05:47:15;;;;;;;1.10;0.93;;;;;;;;;;4977642;28;20194;-83
2021/05/17 05:49:42;;;;;;;1.67;1.20;;;;;;;;;;4971797;28;20191;-83
2021/05/17 05:52:08;;;;;;;2.00;1.00;;;;;;;;;;4970150;28;20188;-83
2021/05/17 05:54:34;;;;;;;2.33;1.23;;;;;;;;;;4975024;28;20190;-83
2021/05/17 05:57:00;;;;;;;2.13;1.20;;;;;;;;;;4969703;28;20663;-83
2021/05/17 05:59:26;;;;;;;1.37;1.27;;;;;;;;;;4964256;28;20222;-84
2021/05/17 06:01:52;;;;;;;1.30;1.20;;;;;;;;;;4979481;28;20189;-84
2021/05/17 06:04:20;;;;;;;1.80;1.30;;;;;;;;;;4973834;28;20393;-84
2021/05/17 06:06:46;;;;;;;1.80;1.20;;;;;;;;;;4969239;28;20434;-84
2021/05/17 06:09:12;;;;;;;1.43;1.10;;;;;;;;;;4971821;28;20335;-84
2021/05/17 06:11:39;;;;;;;1.87;1.20;;;;;;;;;;4971119;28;20204;-84
2021/05/17 06:14:05;;;;;;;1.50;0.90;;;;;;;;;;4967975;28;20224;-84
2021/05/17 06:16:33;;;;;;;2.07;1.13;;;;;;;;;;4972031;28;20184;-84
2021/05/17 06:19:00;;;;;;;1.10;1.00;;;;;;;;;;4965790;28;20542;-84
2021/05/17 06:21:27;;;;;;;1.77;1.30;;;;;;;;;;4967666;28;20184;-85
2021/05/17 06:23:54;;;;;;;2.30;1.87;;;;;;;;;;4961025;28;20223;-83
2021/05/17 06:26:20;;;;;;;1.60;1.40;;;;;;;;;;4966511;28;20191;-83
2021/05/17 06:28:46;;;;;;;2.17;1.10;;;;;;;;;;4965314;28;20940;-82
2021/05/17 06:31:13;;;;;;;2.03;1.20;;;;;;;;;;4966523;28;20237;-79
2021/05/17 06:33:42;;;;;;;1.70;1.20;;;;;;;;;;4959101;28;20216;-81
2021/05/17 06:36:11;;;;;;;1.60;1.50;;;;;;;;;;4950082;28;20195;-77
2021/05/17 06:38:40;;;;;;;1.57;1.47;;;;;;;;;;4956863;28;20207;-84
2021/05/17 06:41:07;;;;;;;3.93;1.40;;;;;;;;;;4969761;28;20282;-83
2021/05/17 06:43:34;;;;;;;1.40;1.30;;;;;;;;;;4968180;28;20184;-83
2021/05/17 06:46:01;;;;;;;2.67;1.60;;;;;;;;;;4978255;28;20225;-84
2021/05/17 06:48:27;;;;;;;1.93;1.30;;;;;;;;;;4973063;28;20183;-83
2021/05/17 06:50:54;;;;;;;2.47;1.27;;;;;;;;;;4959581;28;20674;-83
2021/05/17 06:53:21;;;;;;;4.40;1.73;;;;;;;;;;4968188;28;20179;-83
2021/05/17 06:55:59;;;;;;;2.03;1.40;;;;;;;;;;4965657;28;20192;-83
2021/05/17 06:58:33;;;;;;;1.80;1.30;;;;;;;;;;4965986;28;20207;-83
2021/05/17 07:00:59;;;;;;;1.53;1.17;;;;;;;;;;4964220;28;20651;-83
2021/05/17 07:03:25;;;;;;;3.17;1.60;;;;;;;;;;4971516;28;20580;-83
2021/05/17 07:05:53;;;;;;;3.03;1.43;;;;;;;;;;4967472;28;20233;-83
2021/05/17 07:13:48;;;;;;;2.33;1.10;;;;;;;;;;4968305;28;20238;-83
2021/05/17 07:16:14;;;;;;;1.87;1.40;;;;;;;;;;4965817;28;20184;-83
2021/05/17 07:18:40;;;;;;;3.70;1.97;;;;;;;;;;4969342;28;20542;-83
2021/05/17 07:23:39;;;;;;;3.17;1.30;;;;;;;;;;4969252;28;20271;-83
2021/05/17 07:26:07;;;;;;;2.80;1.17;;;;;;;;;;4960185;28;20173;-83
2021/05/17 07:28:33;;;;;;;4.30;1.37;;;;;;;;;;4963247;28;20622;-83
2021/05/17 07:31:03;;;;;;;2.97;1.13;;;;;;;;;;4968140;28;20187;-83
2021/05/17 07:33:29;;;;;;;1.40;1.13;;;;;;;;;;4963862;28;20787;-83
2021/05/17 07:35:55;;;;;;;1.30;1.10;;;;;;;;;;4967373;28;20280;-83
2021/05/17 07:38:27;;;;;;;2.93;1.23;;;;;;;;;;4967113;28;20261;-83
2021/05/17 07:40:54;;;;;;;3.47;1.23;;;;;;;;;;4967631;28;20193;-83
2021/05/17 07:43:20;;;;;;;1.63;1.20;;;;;;;;;;4970328;28;20555;-84
2021/05/17 07:45:47;;;;;;;3.63;1.47;;;;;;;;;;4971417;28;20199;-83
2021/05/17 07:48:13;;;;;;;3.03;1.43;;;;;;;;;;4971060;28;20184;-83
2021/05/17 07:50:40;;;;;;;1.73;1.10;;;;;;;;;;4973068;28;20198;-83
2021/05/17 07:53:06;;;;;;;2.20;1.20;;;;;;;;;;4970417;28;20211;-83
2021/05/17 07:55:32;;;;;;;1.87;1.27;;;;;;;;;;4980450;28;20501;-83
2021/05/17 07:57:58;;;;;;;3.27;1.47;;;;;;;;;;4963375;28;20203;-83
2021/05/17 08:00:24;;;;;;;2.93;1.30;;;;;;;;;;5004971;28;20200;-83
2021/05/17 08:02:50;;;;;;;2.20;1.20;;;;;;;;;;4968746;28;20211;-82
2021/05/17 08:05:17;;;;;;;2.73;1.30;;;;;;;;;;4993159;28;20184;-83
2021/05/17 08:07:43;;;;;;;3.10;1.53;;;;;;;;;;4971677;28;20208;-83
2021/05/17 08:10:11;;;;;;;2.40;1.43;;;;;;;;;;4974665;28;20172;-83
2021/05/17 08:12:37;;;;;;;2.13;1.67;;;;;;;;;;4972474;28;20248;-82
2021/05/17 08:15:04;;;;;;;2.13;1.23;;;;;;;;;;4998060;28;20220;-82
2021/05/17 08:17:30;;;;;;;4.00;1.43;;;;;;;;;;5004380;28;20207;-82
2021/05/17 08:19:56;;;;;;;2.27;1.20;;;;;;;;;;4968999;28;20237;-82
2021/05/17 08:22:22;;;;;;;2.20;1.40;;;;;;;;;;4969135;28;20263;-83
2021/05/17 08:24:48;;;;;;;2.03;1.13;;;;;;;;;;4962577;28;20195;-83
2021/05/17 08:27:14;;;;;;;2.60;1.13;;;;;;;;;;5008047;28;20393;-83
2021/05/17 08:29:41;;;;;;;3.63;1.53;;;;;;;;;;4963247;28;20227;-83
2021/05/17 08:32:09;;;;;;;2.90;1.30;;;;;;;;;;4971407;28;20195;-83
2021/05/17 08:34:35;;;;;;;2.20;1.17;;;;;;;;;;4974006;28;20207;-83
2021/05/17 08:37:02;;;;;;;1.40;1.20;;;;;;;;;;4983250;28;20204;-83
2021/05/17 08:39:28;;;;;;;1.50;1.13;;;;;;;;;;5004581;28;20555;-82
2021/05/17 08:41:54;;;;;;;1.97;1.33;;;;;;;;;;5001049;28;20640;-82
2021/05/17 08:44:20;;;;;;;1.77;1.20;;;;;;;;;;4960603;28;20188;-82
2021/05/17 08:46:48;;;;;;;2.37;1.20;;;;;;;;;;4976504;28;20207;-82
2021/05/17 08:49:14;;;;;;;1.83;1.50;;;;;;;;;;4965146;28;20658;-82
2021/05/17 08:51:40;;;;;;;3.13;1.20;;;;;;;;;;4962389;28;20543;-82
2021/05/17 08:54:07;;;;;;;1.50;1.00;;;;;;;;;;4969989;28;20192;-82
2021/05/17 08:56:34;;;;;;;1.47;1.07;;;;;;;;;;4971474;28;20325;-82
2021/05/17 08:59:04;;;;;;;2.53;1.67;;;;;;;;;;4972246;28;20180;-82
2021/05/17 09:01:30;;;;;;;1.23;1.13;;;;;;;;;;4971504;28;20260;-82
2021/05/17 09:04:06;;;;;;;1.33;1.20;;;;;;;;;;4971218;28;20195;-82
2021/05/17 09:06:56;;;;;;;2.27;1.57;;;;;;;;;;4955548;28;20657;-82
2021/05/17 09:09:29;;;;;;;2.20;1.10;;;;;;;;;;4970477;28;20219;-82
2021/05/17 09:12:10;;;;;;;2.33;1.43;;;;;;;;;;4972183;28;20176;-81
2021/05/17 09:14:36;;;;;;;1.80;1.10;;;;;;;;;;4964116;28;20287;-82
2021/05/17 09:17:04;;;;;;;1.97;1.10;;;;;;;;;;4965813;28;20331;-82
2021/05/17 09:19:32;;;;;;;2.47;1.23;;;;;;;;;;4967260;28;20764;-82
2021/05/17 09:22:03;;;;;;;2.17;1.10;;;;;;;;;;4971694;28;20275;-82
2021/05/17 09:24:39;;;;;;;1.40;1.10;;;;;;;;;;4994996;28;20184;-82
2021/05/17 09:27:06;;;;;;;1.73;1.20;;;;;;;;;;4964355;28;20266;-82
2021/05/17 09:29:47;;;;;;;2.43;1.47;;;;;;;;;;4973307;28;20184;-82
2021/05/17 09:32:18;;;;;;;2.97;1.47;;;;;;;;;;4969233;28;20194;-83
2021/05/17 09:34:48;;;;;;;1.23;1.03;;;;;;;;;;4971766;28;20647;-82
2021/05/17 09:37:14;;;;;;;1.30;1.20;;;;;;;;;;4959616;28;20665;-83
2021/05/17 09:39:49;;;;;;;1.40;1.30;;;;;;;;;;4968227;28;20188;-82
2021/05/17 09:42:16;;;;;;;1.63;1.20;;;;;;;;;;4966252;28;20255;-82
2021/05/17 09:44:45;;;;;;;4.43;1.27;;;;;;;;;;4971948;28;20614;-82
2021/05/17 09:47:14;;;;;;;2.10;1.20;;;;;;;;;;4963448;28;20247;-83
2021/05/17 09:49:42;;;;;;;2.37;1.40;;;;;;;;;;4969196;28;20226;-82
2021/05/17 09:52:08;;;;;;;1.30;1.20;;;;;;;;;;4963330;28;20283;-82
2021/05/17 09:54:53;;;;;;;2.43;1.40;;;;;;;;;;4971932;28;20191;-82
2021/05/17 09:57:21;;;;;;;2.50;1.40;;;;;;;;;;4969423;28;20207;-83
2021/05/17 09:59:48;;;;;;;1.57;1.17;;;;;;;;;;4971489;28;20187;-82
2021/05/17 10:02:33;;;;;;;1.53;1.20;;;;;;;;;;4966431;28;20233;-83
2021/05/17 10:05:08;;;;;;;1.93;1.37;;;;;;;;;;4984482;28;20191;-83
2021/05/17 10:07:34;;;;;;;1.03;1.03;;;;;;;;;;4967833;28;20183;-82
2021/05/17 10:10:01;;;;;;;1.20;1.10;;;;;;;;;;4976586;28;20230;-83
2021/05/17 10:12:28;;;;;;;1.98;1.20;;;;;;;;;;4971278;28;20936;-82
2021/05/17 10:14:54;;;;;;;3.13;1.50;;;;;;;;;;4983446;28;20705;-83
2021/05/17 10:17:20;;;;;;;3.20;1.43;;;;;;;;;;4966971;28;20204;-83
2021/05/17 10:19:46;;;;;;;1.23;1.10;;;;;;;;;;4973589;28;20179;-83
2021/05/17 10:22:12;;;;;;;1.60;1.20;;;;;;;;;;4972709;28;20172;-84
2021/05/17 10:24:38;;;;;;;3.07;1.43;;;;;;;;;;4974915;28;20210;-84
2021/05/17 10:27:05;;;;;;;1.33;1.00;;;;;;;;;;4974469;28;20184;-84
2021/05/17 10:29:33;;;;;;;2.13;1.30;;;;;;;;;;4962341;28;20196;-78
2021/05/17 10:32:00;;;;;;;2.87;1.40;;;;;;;;;;4972288;28;20207;-85
2021/05/17 10:34:27;;;;;;;2.83;1.57;;;;;;;;;;4973025;28;20251;-85
2021/05/17 10:36:59;;;;;;;1.83;1.40;;;;;;;;;;4970748;28;20215;-84
2021/05/17 10:39:30;;;;;;;1.67;1.57;;;;;;;;;;4979288;28;20222;-85
2021/05/17 10:42:34;;;;;;;2.93;1.70;;;;;;;;;;4968422;28;20194;-85
2021/05/17 10:48:13;;;;;;;2.03;1.47;;;;;;;;;;4997026;28;20194;-85
2021/05/17 10:50:40;;;;;;;3.40;1.60;;;;;;;;;;4967617;28;20460;-84
2021/05/17 10:53:06;;;;;;;1.57;1.27;;;;;;;;;;5016838;28;20543;-85
2021/05/17 10:55:34;;;;;;;1.93;1.20;;;;;;;;;;4974787;28;20184;-84
2021/05/17 11:00:29;;;;;;;3.30;1.33;;;;;;;;;;4974142;28;20184;-85
2021/05/17 11:03:18;;;;;;;2.37;1.20;;;;;;;;;;4972636;28;20197;-85
2021/05/17 11:05:45;;;;;;;3.77;1.50;;;;;;;;;;4975163;28;20191;-84
2021/05/17 11:08:13;;;;;;;1.07;1.07;;;;;;;;;;4973407;28;20180;-84
2021/05/17 11:10:39;;;;;;;2.37;1.40;;;;;;;;;;4973425;28;20192;-85
2021/05/17 11:13:07;;;;;;;1.57;1.13;;;;;;;;;;4975711;28;20180;-84
2021/05/17 11:15:41;;;;;;;1.67;1.17;;;;;;;;;;4974266;28;20192;-84
2021/05/17 11:18:07;;;;;;;1.70;1.20;;;;;;;;;;4976101;28;20211;-84
2021/05/17 11:20:49;;;;;;;2.90;1.53;;;;;;;;;;4974674;28;20652;-84
2021/05/17 11:23:17;;;;;;;2.40;1.33;;;;;;;;;;4970511;28;20595;-85
2021/05/17 11:28:39;;;;;;;1.70;1.00;;;;;;;;;;4973077;28;20172;-85
2021/05/17 11:31:19;;;;;;;2.53;1.30;;;;;;;;;;4977690;28;20230;-84
2021/05/17 11:33:48;;;;;;;1.20;1.10;;;;;;;;;;4977256;28;20255;-84
2021/05/17 11:36:15;;;;;;;1.97;1.20;;;;;;;;;;4982822;28;20176;-84
2021/05/17 11:39:00;;;;;;;3.33;1.40;;;;;;;;;;4976825;28;20200;-85
2021/05/17 11:41:28;;;;;;;1.97;1.20;;;;;;;;;;4977003;28;20176;-84
2021/05/17 11:43:59;;;;;;;2.30;1.53;;;;;;;;;;4976708;28;20184;-84
2021/05/17 11:46:25;;;;;;;1.40;1.13;;;;;;;;;;4984452;28;20199;-84
2021/05/17 11:48:51;;;;;;;1.10;1.07;;;;;;;;;;4976962;28;20195;-84
2021/05/17 11:51:18;;;;;;;1.97;1.03;;;;;;;;;;4976325;28;20176;-84
2021/05/17 11:53:47;;;;;;;1.47;1.20;;;;;;;;;;4991723;28;20238;-84
2021/05/17 11:56:13;;;;;;;1.17;1.07;;;;;;;;;;4993751;28;20180;-84
2021/05/17 11:58:39;;;;;;;1.33;1.10;;;;;;;;;;4975168;28;20353;-84
2021/05/17 12:01:19;;;;;;;1.07;0.90;;;;;;;;;;4978925;28;20251;-85
2021/05/17 12:03:45;;;;;;;0.80;0.70;;;;;;;;;;4973410;28;20194;-84
2021/05/17 12:06:11;;;;;;;2.50;1.10;;;;;;;;;;4975797;28;20234;-84
2021/05/17 12:08:38;;;;;;;1.10;1.00;;;;;;;;;;4964932;28;20552;-84
2021/05/17 12:11:14;;;;;;;1.50;1.10;;;;;;;;;;4985327;28;20231;-84
2021/05/17 12:13:49;;;;;;;0.87;0.87;;;;;;;;;;4970217;28;20219;-84
2021/05/17 12:16:27;;;;;;;2.00;1.30;;;;;;;;;;4974406;28;20175;-84
2021/05/17 12:19:00;;;;;;;1.63;1.30;;;;;;;;;;4974010;28;20437;-84
2021/05/17 12:21:37;;;;;;;1.60;0.80;;;;;;;;;;4974076;28;20222;-84
2021/05/17 12:24:04;;;;;;;0.87;0.87;;;;;;;;;;4967058;28;20188;-84
2021/05/17 12:26:53;;;;;;;1.23;1.00;;;;;;;;;;4973468;28;20172;-84
2021/05/17 12:29:20;;;;;;;1.30;1.03;;;;;;;;;;4965555;28;20267;-84
2021/05/17 12:31:46;;;;;;;2.67;1.20;;;;;;;;;;4959393;28;20715;-84
2021/05/17 12:34:12;;;;;;;1.03;0.90;;;;;;;;;;4966802;28;20228;-84
2021/05/17 12:36:39;;;;;;;1.00;1.00;;;;;;;;;;4976191;28;20658;-84
2021/05/17 12:39:05;;;;;;;1.37;1.20;;;;;;;;;;4970008;28;20202;-84
2021/05/17 12:41:41;;;;;;;1.40;1.30;;;;;;;;;;4974202;28;20226;-84
2021/05/17 12:44:26;;;;;;;1.30;1.10;;;;;;;;;;4965591;28;20262;-84
2021/05/17 12:47:05;;;;;;;1.50;1.40;;;;;;;;;;4994679;28;20639;-84
2021/05/17 12:49:52;;;;;;;0.97;0.93;;;;;;;;;;4975319;28;20723;-84
2021/05/17 12:52:37;;;;;;;1.37;1.10;;;;;;;;;;4978559;28;20179;-84
2021/05/17 12:55:10;;;;;;;1.30;1.20;;;;;;;;;;5005570;28;20257;-84
2021/05/17 12:57:46;;;;;;;1.43;1.27;;;;;;;;;;4974068;28;20196;-84
2021/05/17 13:00:13;;;;;;;1.60;1.10;;;;;;;;;;4961867;28;20600;-84
2021/05/17 13:02:39;;;;;;;1.57;1.43;;;;;;;;;;4972452;28;20677;-84
2021/05/17 13:05:06;;;;;;;1.50;1.37;;;;;;;;;;4970256;28;20255;-84
2021/05/17 13:07:32;;;;;;;1.40;1.30;;;;;;;;;;4970461;28;20625;-84
2021/05/17 13:09:58;;;;;;;1.90;1.33;;;;;;;;;;4974013;28;20207;-84
2021/05/17 13:12:25;;;;;;;2.43;1.43;;;;;;;;;;4999717;28;20185;-84
2021/05/17 13:14:51;;;;;;;1.70;1.20;;;;;;;;;;4962890;28;20219;-84
2021/05/17 13:17:17;;;;;;;2.50;1.10;;;;;;;;;;4973208;28;20242;-84
2021/05/17 13:19:58;;;;;;;2.70;1.40;;;;;;;;;;4969585;28;20266;-84
2021/05/17 13:30:31;;;;;;;2.13;1.50;;;;;;;;;;4975555;28;20195;-84
2021/05/17 13:32:57;;;;;;;1.30;1.20;;;;;;;;;;5010180;28;20215;-84
2021/05/17 13:35:24;;;;;;;1.83;1.73;;;;;;;;;;5010024;28;20675;-83
2021/05/17 13:37:50;;;;;;;1.50;1.40;;;;;;;;;;4962118;28;20646;-83
2021/05/17 13:40:16;;;;;;;2.43;1.93;;;;;;;;;;4975680;28;20249;-83
2021/05/17 13:42:43;;;;;;;1.60;1.50;;;;;;;;;;4979315;28;20626;-83
2021/05/17 13:45:10;;;;;;;1.57;1.47;;;;;;;;;;5015022;28;20250;-84
2021/05/17 13:47:36;;;;;;;3.37;2.33;;;;;;;;;;4992306;28;20429;-77
2021/05/17 13:50:07;;;;;;;3.23;1.83;;;;;;;;;;4970020;28;20432;-83
2021/05/17 13:52:33;;;;;;;2.07;1.70;;;;;;;;;;4984747;28;20184;-84
2021/05/17 13:54:59;;;;;;;3.67;2.60;;;;;;;;;;4981295;28;20497;-84
2021/05/17 13:57:25;;;;;;;2.37;2.00;;;;;;;;;;4989763;28;21303;-84
2021/05/17 13:59:51;;;;;;;5.63;2.90;;;;;;;;;;5003122;28;20620;-84
2021/05/17 14:02:19;;;;;;;3.17;2.77;;;;;;;;;;4978193;28;20186;-84
2021/05/17 14:04:45;;;;;;;3.33;2.13;;;;;;;;;;4991172;28;20238;-84
2021/05/17 14:07:11;;;;;;;4.50;3.37;;;;;;;;;;4976041;28;20190;-84
2021/05/17 14:09:37;;;;;;;3.47;2.53;;;;;;;;;;4978245;28;20180;-84
2021/05/17 14:12:04;;;;;;;3.90;2.90;;;;;;;;;;4976264;28;20192;-85
2021/05/17 14:14:30;;;;;;;4.90;3.73;;;;;;;;;;4978699;28;20302;-84
2021/05/17 14:16:57;;;;;;;4.77;2.97;;;;;;;;;;4985287;28;20284;-84
2021/05/17 14:19:24;;;;;;;4.07;3.47;;;;;;;;;;5005745;28;20200;-84
2021/05/17 14:21:51;;;;;;;3.50;3.17;;;;;;;;;;4976623;28;20211;-84
2021/05/17 14:24:17;;;;;;;3.93;3.53;;;;;;;;;;4982994;28;20180;-84
2021/05/17 14:26:43;;;;;;;6.00;4.80;;;;;;;;;;4987783;28;20218;-84
2021/05/17 14:29:09;;;;;;;6.10;5.27;;;;;;;;;;4972227;28;20176;-83
2021/05/17 14:31:36;;;;;;;11.30;5.00;;;;;;;;;;4972537;28;20180;-84
2021/05/17 14:34:02;;;;;;;5.70;4.60;;;;;;;;;;4965933;28;20814;-83
2021/05/17 14:36:32;;;;;;;5.07;4.50;;;;;;;;;;4966239;28;20194;-83
2021/05/17 14:38:59;;;;;;;5.50;4.97;;;;;;;;;;4965818;28;20238;-84
2021/05/17 14:41:25;;;;;;;4.17;3.80;;;;;;;;;;4973565;28;20179;-84
2021/05/17 14:43:51;;;;;;;3.47;3.03;;;;;;;;;;4976107;28;20188;-83
2021/05/17 14:46:17;;;;;;;4.30;3.07;;;;;;;;;;4973656;28;20209;-83
2021/05/17 14:48:44;;;;;;;2.80;2.60;;;;;;;;;;4974930;28;20188;-83
2021/05/17 14:51:10;;;;;;;2.83;2.20;;;;;;;;;;4974929;28;20202;-84
2021/05/17 14:53:36;;;;;;;3.97;3.17;;;;;;;;;;4973074;28;20202;-84
2021/05/17 14:56:02;;;;;;;3.67;2.63;;;;;;;;;;4987122;28;20213;-83
2021/05/17 14:58:28;;;;;;;3.23;2.60;;;;;;;;;;4970816;28;20224;-83
2021/05/17 15:00:54;;;;;;;2.63;2.43;;;;;;;;;;4970788;28;20266;-83
2021/05/17 15:03:20;;;;;;;3.27;2.50;;;;;;;;;;4974062;28;20214;-84
2021/05/17 15:05:46;;;;;;;2.90;2.70;;;;;;;;;;4975292;28;20183;-84
2021/05/17 15:08:13;;;;;;;3.97;2.97;;;;;;;;;;4968293;28;20442;-83
2021/05/17 15:10:40;;;;;;;3.23;2.80;;;;;;;;;;4976034;28;20194;-83
2021/05/17 15:13:06;;;;;;;3.10;2.80;;;;;;;;;;4974796;28;20188;-83
2021/05/17 15:15:33;;;;;;;3.83;3.27;;;;;;;;;;5004291;28;20180;-83
2021/05/17 15:17:59;;;;;;;2.77;2.57;;;;;;;;;;4972582;28;20208;-87
2021/05/17 15:20:26;;;;;;;3.60;3.20;;;;;;;;;;4975170;28;20180;-83
2021/05/17 15:22:52;;;;;;;3.40;3.10;;;;;;;;;;4967466;28;20176;-83